Time;durP1;ratioP1;P1;durP2;ratioP2;P2;SDS_P1;SDS_P2;PMS_P1;PMS_P2;Temp;Humidity;BMP_temperature;BMP_pressure;BME280_temperature;BME280_humidity;BME280_pressure;Samples;Min_cycle;Max_cycle;Signal;HPM_P1;HPM_P2
2020/12/14 00:01:07;;;;;;;10.68;3.47;;;;;;;5.57;89.93;100448.50;4753362;29;20084;-85
2020/12/14 00:03:33;;;;;;;5.18;2.80;;;;;;;5.60;90.02;100463.44;4787069;29;20077;-83
2020/12/14 00:06:00;;;;;;;9.38;3.20;;;;;;;5.61;89.90;100455.31;4788846;29;20055;-86
2020/12/14 00:08:28;;;;;;;8.05;3.22;;;;;;;5.61;90.02;100462.50;4795755;29;20065;-87
2020/12/14 00:11:02;;;;;;;7.70;3.13;;;;;;;5.62;89.86;100461.50;4767099;29;20074;-85
2020/12/14 00:13:29;;;;;;;12.55;3.78;;;;;;;5.65;89.45;100449.75;4783975;29;20421;-86
2020/12/14 00:15:58;;;;;;;13.75;4.00;;;;;;;5.57;89.92;100437.81;4769801;29;20130;-85
2020/12/14 00:18:37;;;;;;;7.78;2.60;;;;;;;5.55;89.64;100439.75;4780328;29;20039;-85
2020/12/14 00:21:06;;;;;;;9.63;3.17;;;;;;;5.57;89.72;100443.16;4780268;29;20141;-85
2020/12/14 00:23:37;;;;;;;9.60;3.27;;;;;;;5.63;89.42;100446.34;4783114;29;20112;-85
2020/12/14 00:26:29;;;;;;;11.93;3.75;;;;;;;5.64;89.91;100448.03;4772510;29;20062;-86
2020/12/14 00:28:56;;;;;;;13.13;3.97;;;;;;;5.69;90.16;100449.41;4778976;29;20047;-88
2020/12/14 00:31:21;;;;;;;14.90;4.80;;;;;;;5.70;89.46;100447.59;4762169;29;20560;-85
2020/12/14 00:33:47;;;;;;;18.55;6.07;;;;;;;5.71;89.44;100446.63;4779277;29;20052;-87
2020/12/14 00:36:14;;;;;;;18.17;4.68;;;;;;;5.72;89.60;100449.16;4758766;29;20054;-85
2020/12/14 00:38:40;;;;;;;18.88;4.82;;;;;;;5.80;89.67;100440.59;4784092;29;20108;-86
2020/12/14 00:41:16;;;;;;;16.40;4.43;;;;;;;5.79;89.53;100441.56;4763680;29;20510;-89
2020/12/14 00:43:51;;;;;;;8.38;3.65;;;;;;;5.81;89.23;100438.78;4799738;29;20070;-87
2020/12/14 00:46:27;;;;;;;16.67;4.93;;;;;;;5.86;88.82;100442.81;4761539;29;20070;-86
2020/12/14 00:48:53;;;;;;;16.15;4.35;;;;;;;5.91;88.73;100453.97;4781278;29;20443;-86
2020/12/14 00:51:35;;;;;;;14.93;4.80;;;;;;;5.91;88.94;100439.78;4761877;29;20058;-85
2020/12/14 00:54:06;;;;;;;12.32;4.53;;;;;;;5.95;87.94;100458.13;4782038;29;20050;-86
2020/12/14 00:56:31;;;;;;;18.50;4.95;;;;;;;5.93;88.39;100443.19;4745562;30;20095;-85
2020/12/14 00:59:07;;;;;;;19.20;5.13;;;;;;;5.94;88.56;100445.72;4770989;29;20111;-85
2020/12/14 01:01:40;;;;;;;16.08;4.55;;;;;;;5.94;88.27;100428.84;4796530;29;20058;-85
2020/12/14 01:04:05;;;;;;;19.58;4.93;;;;;;;5.97;87.74;100439.34;4762053;29;20043;-85
2020/12/14 01:06:31;;;;;;;18.75;5.07;;;;;;;5.97;88.52;100445.53;4776873;29;20058;-85
2020/12/14 01:09:00;;;;;;;14.57;4.18;;;;;;;5.97;88.84;100442.00;4780322;29;20050;-85
2020/12/14 01:11:27;;;;;;;15.60;5.07;;;;;;;5.97;88.03;100445.53;4778159;29;20979;-84
2020/12/14 01:13:53;;;;;;;9.27;3.15;;;;;;;5.97;88.09;100445.53;4781123;29;20523;-85
2020/12/14 01:16:32;;;;;;;18.83;5.18;;;;;;;5.94;88.49;100435.03;4786785;29;20047;-85
2020/12/14 01:19:05;;;;;;;17.38;5.32;;;;;;;5.91;88.67;100424.59;4776402;29;21619;-84
2020/12/14 01:21:33;;;;;;;17.67;5.22;;;;;;;5.90;89.35;100428.25;4756462;29;20043;-86
2020/12/14 01:23:58;;;;;;;13.13;3.60;;;;;;;5.86;89.85;100420.56;4771400;29;20049;-88
2020/12/14 01:26:32;;;;;;;9.70;3.90;;;;;;;5.78;89.79;100407.81;4771124;29;20142;-85
2020/12/14 01:29:08;;;;;;;10.85;3.03;;;;;;;5.79;89.64;100426.38;4785050;29;20054;-84
2020/12/14 01:31:34;;;;;;;10.57;3.40;;;;;;;5.88;88.86;100416.81;4785976;29;20502;-85
2020/12/14 01:34:00;;;;;;;16.52;4.68;;;;;;;5.90;88.64;100417.56;4777504;29;20043;-87
2020/12/14 01:36:25;;;;;;;15.73;5.68;;;;;;;5.95;88.47;100422.56;4781171;29;20100;-84
2020/12/14 01:38:56;;;;;;;16.58;5.35;;;;;;;5.95;88.41;100420.72;4782419;29;20046;-85
2020/12/14 01:41:34;;;;;;;24.13;6.20;;;;;;;6.00;89.11;100427.56;4746457;29;20851;-86
2020/12/14 01:44:20;;;;;;;18.30;4.50;;;;;;;5.94;88.85;100421.69;4794520;29;20043;-86
2020/12/14 01:46:45;;;;;;;15.90;4.95;;;;;;;5.98;88.79;100422.34;4782806;29;20534;-85
2020/12/14 01:49:22;;;;;;;22.50;5.80;;;;;;;5.97;88.90;100424.16;4773843;29;20107;-86
2020/12/14 01:51:56;;;;;;;18.23;6.38;;;;;;;6.03;88.92;100427.34;4793100;29;20055;-87
2020/12/14 01:54:36;;;;;;;13.07;4.88;;;;;;;6.07;88.71;100418.97;4800919;29;20051;-84
2020/12/14 01:57:02;;;;;;;15.52;4.20;;;;;;;6.07;88.66;100413.63;4772209;29;20055;-85
2020/12/14 01:59:28;;;;;;;15.75;5.20;;;;;;;6.07;88.58;100412.78;4776146;29;20050;-86
2020/12/14 02:01:59;;;;;;;15.18;4.63;;;;;;;6.05;89.25;100409.34;4773557;29;20047;-85
2020/12/14 02:04:24;;;;;;;15.85;4.75;;;;;;;6.07;88.59;100402.94;4774034;29;20073;-84
2020/12/14 02:06:57;;;;;;;12.40;3.20;;;;;;;6.10;88.96;100396.50;4776858;29;20061;-86
2020/12/14 02:09:23;;;;;;;14.63;4.72;;;;;;;6.12;88.50;100402.56;4785945;29;20043;-85
2020/12/14 02:11:57;;;;;;;6.05;2.90;;;;;;;6.12;88.33;100387.41;4780917;29;20054;-84
2020/12/14 02:14:25;;;;;;;13.25;3.83;;;;;;;6.19;88.19;100387.78;4784785;29;20059;-84
2020/12/14 02:17:08;;;;;;;15.23;3.95;;;;;;;6.19;88.22;100390.44;4782805;29;20074;-88
2020/12/14 02:19:33;;;;;;;10.18;3.40;;;;;;;6.16;88.16;100395.19;4758129;29;20175;-85
2020/12/14 02:21:59;;;;;;;9.75;3.35;;;;;;;6.14;88.41;100397.97;4781870;29;20057;-84
2020/12/14 02:24:30;;;;;;;9.65;3.00;;;;;;;6.16;88.66;100396.03;4783114;29;20040;-85
2020/12/14 02:26:55;;;;;;;9.15;3.78;;;;;;;6.21;88.46;100387.66;4766177;29;20594;-84
2020/12/14 02:29:26;;;;;;;16.13;3.70;;;;;;;6.20;88.52;100384.13;4765943;29;21554;-85
2020/12/14 02:32:03;;;;;;;8.00;3.05;;;;;;;6.20;88.51;100376.13;4783359;29;20074;-86
2020/12/14 02:34:28;;;;;;;10.05;3.75;;;;;;;6.21;88.02;100383.16;4772077;29;20496;-86
2020/12/14 02:36:55;;;;;;;11.23;3.50;;;;;;;6.23;88.57;100389.25;4774597;29;20048;-86
2020/12/14 02:39:21;;;;;;;14.32;4.68;;;;;;;6.20;88.86;100381.47;4786110;29;20103;-86
2020/12/14 02:41:55;;;;;;;16.15;4.57;;;;;;;6.26;88.46;100377.47;4781950;29;20065;-87
2020/12/14 02:44:21;;;;;;;15.80;4.20;;;;;;;6.27;88.52;100382.69;4748843;29;21290;-87
2020/12/14 02:46:46;;;;;;;18.40;5.30;;;;;;;6.27;87.99;100371.13;4758762;29;20059;-84
2020/12/14 02:49:12;;;;;;;14.30;5.00;;;;;;;6.24;88.83;100377.59;4767663;29;20580;-88
2020/12/14 02:51:43;;;;;;;15.98;5.32;;;;;;;6.19;89.50;100376.25;4782361;29;20427;-85
2020/12/14 02:54:13;;;;;;;19.63;5.60;;;;;;;6.21;89.35;100374.28;4755284;29;20051;-85
2020/12/14 02:56:44;;;;;;;19.10;5.78;;;;;;;6.16;89.80;100369.31;4777094;29;20036;-84
2020/12/14 02:59:24;;;;;;;16.75;5.60;;;;;;;6.18;90.23;100366.50;4790028;29;20141;-86
2020/12/14 03:01:53;;;;;;;11.70;4.28;;;;;;;6.15;89.66;100372.94;4777416;29;20058;-86
2020/12/14 03:04:20;;;;;;;15.52;4.95;;;;;;;6.15;90.62;100367.59;4769850;29;20045;-85
2020/12/14 03:06:54;;;;;;;15.18;4.40;;;;;;;6.15;90.97;100367.59;4786923;29;20109;-85
2020/12/14 03:09:21;;;;;;;13.73;4.85;;;;;;;6.14;90.99;100366.75;4775136;29;20096;-85
2020/12/14 03:11:48;;;;;;;15.60;5.10;;;;;;;6.19;91.14;100357.53;4772796;29;20544;-85
2020/12/14 03:14:16;;;;;;;14.18;4.35;;;;;;;6.19;90.59;100358.38;4762970;29;20058;-84
2020/12/14 03:16:51;;;;;;;11.90;4.93;;;;;;;6.21;90.55;100355.59;4787242;29;20340;-86
2020/12/14 03:19:24;;;;;;;13.80;4.15;;;;;;;6.20;90.72;100349.41;4767656;29;20503;-85
2020/12/14 03:22:08;;;;;;;11.68;4.47;;;;;;;6.20;91.43;100349.41;4794800;29;20128;-85
2020/12/14 03:24:40;;;;;;;14.88;4.78;;;;;;;6.17;91.31;100338.09;4755842;30;20078;-85
2020/12/14 03:27:05;;;;;;;11.65;4.07;;;;;;;6.20;91.34;100340.50;4774500;29;20595;-86
2020/12/14 03:29:36;;;;;;;11.52;4.80;;;;;;;6.16;91.80;100337.25;4766092;29;20071;-86
2020/12/14 03:34:50;;;;;;;17.00;4.40;;;;;;;6.11;92.60;100347.44;4774332;29;20084;-88
2020/12/14 03:37:24;;;;;;;14.20;5.30;;;;;;;6.10;93.39;100332.38;4788819;29;20074;-85
2020/12/14 03:39:55;;;;;;;24.30;6.03;;;;;;;6.04;93.93;100332.88;4807681;29;20084;-86
2020/12/14 03:42:29;;;;;;;19.50;5.28;;;;;;;6.00;94.65;100332.25;4796607;29;20212;-86
2020/12/14 03:45:00;;;;;;;15.60;5.75;;;;;;;5.94;95.09;100322.84;4772693;29;20050;-86
2020/12/14 03:47:36;;;;;;;20.58;5.93;;;;;;;5.91;95.80;100339.13;4808776;29;20134;-86
2020/12/14 03:50:03;;;;;;;17.17;6.50;;;;;;;5.88;96.04;100334.03;4799752;29;20042;-86
2020/12/14 03:52:36;;;;;;;24.77;8.73;;;;;;;5.87;95.62;100342.16;4776065;29;20043;-85
2020/12/14 03:55:02;;;;;;;24.65;8.73;;;;;;;5.89;96.25;100346.41;4797838;29;20082;-85
2020/12/14 03:57:35;;;;;;;21.67;7.05;;;;;;;5.92;96.66;100351.53;4780488;29;20040;-84
2020/12/14 04:00:02;;;;;;;17.90;6.85;;;;;;;5.91;96.09;100336.44;4780294;29;20104;-86
2020/12/14 04:02:30;;;;;;;18.42;6.80;;;;;;;5.93;96.37;100337.19;4780082;29;20040;-84
2020/12/14 04:04:59;;;;;;;21.23;7.10;;;;;;;5.93;96.50;100337.19;4776445;29;20435;-84
2020/12/14 04:07:27;;;;;;;23.80;7.88;;;;;;;5.94;97.24;100338.03;4793213;29;20054;-87
2020/12/14 04:09:55;;;;;;;26.40;7.33;;;;;;;5.96;97.07;100342.31;4759663;29;20395;-86
2020/12/14 04:12:26;;;;;;;17.98;7.38;;;;;;;5.92;97.07;100335.50;4768181;29;20447;-86
2020/12/14 04:14:54;;;;;;;16.10;7.25;;;;;;;5.94;96.68;100336.22;4792736;29;20051;-86
2020/12/14 04:17:20;;;;;;;18.13;7.72;;;;;;;5.99;97.16;100340.38;4769041;29;20047;-84
2020/12/14 04:19:48;;;;;;;21.23;8.93;;;;;;;6.01;97.39;100341.09;4765911;29;20061;-86
2020/12/14 04:22:15;;;;;;;17.88;7.43;;;;;;;5.98;97.99;100342.22;4768617;29;20963;-85
2020/12/14 04:24:40;;;;;;;23.45;9.20;;;;;;;5.99;97.58;100340.38;4795073;29;20051;-84
2020/12/14 04:27:10;;;;;;;22.35;7.95;;;;;;;5.99;97.94;100341.22;4779058;29;20054;-87
2020/12/14 04:29:44;;;;;;;23.55;8.98;;;;;;;6.00;98.68;100339.41;4787635;29;20103;-83
2020/12/14 04:32:09;;;;;;;18.63;8.88;;;;;;;6.01;98.21;100349.13;4774081;29;20040;-83
2020/12/14 04:34:34;;;;;;;17.08;7.18;;;;;;;6.00;98.40;100350.09;4778174;29;20054;-84
2020/12/14 04:37:03;;;;;;;15.80;7.55;;;;;;;5.99;99.02;100335.03;4782280;29;20410;-86
2020/12/14 04:39:31;;;;;;;25.42;9.93;;;;;;;6.04;99.00;100332.88;4790283;29;20444;-82
2020/12/14 04:41:59;;;;;;;21.95;9.07;;;;;;;6.02;99.19;100334.78;4771289;29;20053;-83
2020/12/14 04:44:25;;;;;;;34.58;9.48;;;;;;;6.03;98.55;100341.84;4764411;29;20051;-83
2020/12/14 04:46:54;;;;;;;20.23;9.13;;;;;;;6.03;99.54;100348.03;4784129;29;20529;-84
2020/12/14 04:49:22;;;;;;;20.63;8.50;;;;;;;6.08;99.12;100336.97;4778371;29;20133;-86
2020/12/14 04:52:02;;;;;;;22.65;10.20;;;;;;;6.07;99.76;100341.50;4776479;29;20062;-87
2020/12/14 04:54:33;;;;;;;25.77;10.30;;;;;;;6.12;99.64;100341.13;4771086;29;20070;-86
2020/12/14 04:57:08;;;;;;;27.70;11.15;;;;;;;6.15;99.63;100335.53;4772048;30;20137;-85
2020/12/14 04:59:37;;;;;;;24.70;10.38;;;;;;;6.19;100.00;100337.00;4745833;30;20043;-87
2020/12/14 05:02:14;;;;;;;20.05;8.48;;;;;;;6.23;99.84;100337.63;4749167;29;20510;-86
2020/12/14 05:04:43;;;;;;;26.52;10.07;;;;;;;6.26;100.00;100327.53;4763256;29;20051;-86
2020/12/14 05:07:26;;;;;;;22.70;9.35;;;;;;;6.35;99.82;100335.81;4783915;29;20047;-90
2020/12/14 05:10:01;;;;;;;23.83;9.63;;;;;;;6.36;100.00;100321.44;4770449;29;20051;-88
2020/12/14 05:12:34;;;;;;;16.13;10.02;;;;;;;6.38;99.99;100327.53;4796425;29;20063;-85
2020/12/14 05:15:30;;;;;;;18.92;8.63;;;;;;;6.40;100.00;100322.91;4761483;29;20081;-88
2020/12/14 05:18:13;;;;;;;20.55;9.00;;;;;;;6.46;100.00;100311.72;4774264;29;20038;-88
2020/12/14 05:20:45;;;;;;;19.52;8.40;;;;;;;6.47;99.55;100316.94;4764754;29;20513;-87
2020/12/14 05:23:13;;;;;;;15.75;9.18;;;;;;;6.49;99.77;100312.34;4793814;29;20042;-89
2020/12/14 05:25:41;;;;;;;18.13;9.55;;;;;;;6.49;99.85;100312.34;4784410;29;20131;-88
2020/12/14 05:28:19;;;;;;;20.17;10.20;;;;;;;6.56;99.73;100312.69;4785263;29;20050;-87
2020/12/14 05:30:49;;;;;;;19.92;9.52;;;;;;;6.54;99.36;100306.63;4778099;29;20063;-87
2020/12/14 05:33:21;;;;;;;27.80;10.65;;;;;;;6.58;99.82;100318.78;4797699;29;20048;-85
2020/12/14 05:35:55;;;;;;;23.75;10.63;;;;;;;6.56;99.67;100318.03;4772631;29;20055;-88
2020/12/14 05:38:31;;;;;;;18.90;9.55;;;;;;;6.58;100.00;100305.41;4776482;29;20044;-89
2020/12/14 05:41:04;;;;;;;24.50;11.02;;;;;;;6.58;100.00;100305.41;4776473;29;20054;-86
2020/12/14 05:43:34;;;;;;;28.73;12.23;;;;;;;6.57;100.00;100295.66;4783519;29;20138;-87
2020/12/14 05:46:27;;;;;;;20.40;9.82;;;;;;;6.59;100.00;100296.38;4789536;29;20413;-88
2020/12/14 05:49:08;;;;;;;24.73;10.20;;;;;;;6.62;99.95;100292.63;4755299;29;20612;-87
2020/12/14 05:51:38;;;;;;;27.05;11.07;;;;;;;6.63;99.85;100286.31;4772257;29;20589;-89
2020/12/14 05:54:12;;;;;;;20.23;9.98;;;;;;;6.62;100.00;100277.41;4767652;29;20081;-87
2020/12/14 05:56:50;;;;;;;15.85;9.23;;;;;;;6.64;100.00;100282.63;4792506;29;20426;-87
2020/12/14 05:59:18;;;;;;;18.08;10.07;;;;;;;6.69;100.00;100285.81;4763496;29;20126;-87
2020/12/14 06:01:52;;;;;;;18.80;9.02;;;;;;;6.71;100.00;100307.06;4773379;29;20425;-85
2020/12/14 06:04:22;;;;;;;13.70;7.93;;;;;;;6.77;99.86;100314.59;4773725;29;20497;-86
2020/12/14 06:07:12;;;;;;;;;;;;;;;;;;;;;
2020/12/14 06:10:02;;;;;;;12.68;8.02;;;;;;;6.82;99.78;100323.09;4786595;29;20550;-86
2020/12/14 06:12:34;;;;;;;13.10;7.88;;;;;;;6.81;99.46;100329.41;4772546;29;20067;-85
2020/12/14 06:15:13;;;;;;;10.20;7.45;;;;;;;6.81;99.66;100326.75;4784610;29;20089;-88
2020/12/14 06:17:39;;;;;;;;;;;;;;;6.83;100.00;100322.09;4785904;29;20504;-88
2020/12/14 06:20:28;;;;;;;10.02;7.55;;;;;;;6.86;99.86;100323.69;4772553;29;19921;-85
2020/12/14 06:23:10;;;;;;;15.85;8.60;;;;;;;6.89;100.00;100320.75;4805033;29;20062;-88
2020/12/14 06:26:16;;;;;;;14.65;9.73;;;;;;;6.90;100.00;100325.97;4759373;29;20051;-89
2020/12/14 06:28:52;;;;;;;13.80;8.82;;;;;;;6.88;99.97;100327.94;4736856;30;20043;-84
2020/12/14 06:31:46;;;;;;;12.93;9.68;;;;;;;6.93;100.00;100335.59;4775104;29;20047;-85
2020/12/14 06:34:38;;;;;;;12.30;10.00;;;;;;;6.94;100.00;100311.38;4784155;29;20051;-85
2020/12/14 06:37:04;;;;;;;16.00;9.15;;;;;;;6.95;99.81;100326.47;4771963;29;20047;-86
2020/12/14 06:39:45;;;;;;;14.30;11.30;;;;;;;6.95;100.00;100318.44;4783379;29;20054;-86
2020/12/14 06:45:41;;;;;;;20.65;10.65;;;;;;;7.01;100.00;100317.94;4770670;29;20068;-85
2020/12/14 06:48:09;;;;;;;18.08;11.15;;;;;;;7.01;100.00;100311.75;4770382;29;20059;-85
2020/12/14 06:50:37;;;;;;;16.67;11.95;;;;;;;7.01;99.81;100312.59;4761714;29;20047;-86
2020/12/14 06:53:12;;;;;;;26.25;12.45;;;;;;;7.05;100.00;100304.31;4787485;29;20051;-85
2020/12/14 06:55:44;;;;;;;30.58;15.02;;;;;;;7.04;100.00;100290.09;4782312;29;20107;-86
2020/12/14 06:58:29;;;;;;;32.80;15.60;;;;;;;7.09;99.80;100276.31;4770003;29;20062;-86
2020/12/14 07:01:36;;;;;;;30.52;13.82;;;;;;;7.16;100.00;100277.50;4778787;29;20050;-83
2020/12/14 07:04:23;;;;;;;22.23;13.93;;;;;;;7.15;100.00;100297.22;4802834;29;20125;-85
2020/12/14 07:07:05;;;;;;;26.20;12.55;;;;;;;7.18;100.00;100294.28;4782241;29;20051;-85
2020/12/14 07:09:54;;;;;;;25.38;13.60;;;;;;;7.23;100.00;100323.31;4765408;29;20126;-86
2020/12/14 07:12:22;;;;;;;19.15;12.27;;;;;;;7.27;100.00;100316.75;4794984;29;20552;-85
2020/12/14 07:14:53;;;;;;;18.45;11.27;;;;;;;7.24;100.00;100320.53;4789153;29;20560;-84
2020/12/14 07:17:18;;;;;;;22.27;11.30;;;;;;;7.28;100.00;100318.47;4780431;29;20896;-83
2020/12/14 07:20:08;;;;;;;19.23;11.23;;;;;;;7.29;100.00;100320.16;4789971;29;20146;-85
2020/12/14 07:22:58;;;;;;;27.52;12.07;;;;;;;7.30;100.00;100324.50;4764897;29;20058;-84
2020/12/14 07:25:37;;;;;;;21.98;12.45;;;;;;;7.30;100.00;100319.16;4786226;29;20054;-89
2020/12/14 07:28:03;;;;;;;20.90;11.88;;;;;;;7.31;100.00;100308.31;4762800;29;20089;-85
2020/12/14 07:30:39;;;;;;;22.35;12.35;;;;;;;7.37;100.00;100317.66;4773691;29;20126;-85
2020/12/14 07:33:05;;;;;;;24.52;13.32;;;;;;;7.37;100.00;100323.88;4769541;29;20043;-85
2020/12/14 07:35:39;;;;;;;23.83;12.57;;;;;;;7.39;100.00;100326.44;4771989;29;20076;-86
2020/12/14 07:38:12;;;;;;;14.73;9.95;;;;;;;7.40;100.00;100330.81;4787027;29;20047;-86
2020/12/14 07:40:39;;;;;;;15.90;11.00;;;;;;;7.48;100.00;100346.22;4764353;29;20145;-88
2020/12/14 07:43:07;;;;;;;18.20;11.70;;;;;;;7.49;100.00;100337.22;4778885;29;20101;-84
2020/12/14 07:45:33;;;;;;;16.55;11.00;;;;;;;7.48;100.00;100331.03;4776929;29;20175;-86
2020/12/14 07:48:10;;;;;;;20.35;11.90;;;;;;;7.47;100.00;100337.34;4771453;29;20493;-85
2020/12/14 07:50:37;;;;;;;20.63;11.50;;;;;;;7.48;100.00;100338.19;4753206;29;20085;-85
2020/12/14 07:53:08;;;;;;;16.02;11.10;;;;;;;7.53;100.00;100349.38;4764793;29;20052;-85
2020/12/14 07:55:36;;;;;;;16.98;11.35;;;;;;;7.58;100.00;100325.72;4781320;29;20050;-88
2020/12/14 07:58:05;;;;;;;16.55;11.68;;;;;;;7.61;100.00;100328.16;4763984;29;20130;-88
2020/12/14 08:00:36;;;;;;;21.10;12.13;;;;;;;7.66;100.00;100341.16;4768734;29;20148;-86
2020/12/14 08:03:11;;;;;;;16.35;12.15;;;;;;;7.69;100.00;100344.41;4781598;29;20053;-85
2020/12/14 08:05:41;;;;;;;15.77;12.32;;;;;;;7.78;100.00;100356.19;4775691;29;20417;-85
2020/12/14 08:08:29;;;;;;;14.88;11.02;;;;;;;7.78;100.00;100355.34;4753472;29;20428;-86
2020/12/14 08:11:12;;;;;;;13.95;10.85;;;;;;;7.82;100.00;100351.44;4792065;29;20532;-86
2020/12/14 08:13:44;;;;;;;15.68;11.15;;;;;;;7.84;100.00;100352.13;4757968;29;20130;-86
2020/12/14 08:16:20;;;;;;;16.98;12.20;;;;;;;7.82;100.00;100362.97;4763730;29;20047;-87
2020/12/14 08:19:05;;;;;;;21.60;12.45;;;;;;;7.82;100.00;100359.47;4778089;29;20043;-85
2020/12/14 08:21:37;;;;;;;18.38;11.73;;;;;;;7.87;100.00;100362.59;4763361;29;20126;-88
2020/12/14 08:24:08;;;;;;;16.33;12.48;;;;;;;7.87;100.00;100359.91;4766487;29;20052;-86
2020/12/14 08:26:38;;;;;;;19.38;13.02;;;;;;;7.92;100.00;100360.38;4782140;29;20054;-85
2020/12/14 08:29:13;;;;;;;19.45;13.90;;;;;;;7.95;100.00;100368.16;4767842;29;20042;-85
2020/12/14 08:31:41;;;;;;;20.30;13.25;;;;;;;7.95;100.00;100369.97;4767204;29;20047;-85
2020/12/14 08:34:12;;;;;;;21.17;14.27;;;;;;;7.97;100.00;100368.84;4761998;29;20106;-87
2020/12/14 08:36:39;;;;;;;20.33;14.55;;;;;;;7.97;100.00;100370.69;4800321;29;20047;-86
2020/12/14 08:39:13;;;;;;;25.58;13.70;;;;;;;7.99;100.00;100382.13;4765334;29;20546;-87
2020/12/14 08:41:39;;;;;;;21.30;14.75;;;;;;;8.06;99.74;100378.78;4769144;29;20054;-84
2020/12/14 08:44:18;;;;;;;18.50;13.23;;;;;;;8.05;100.00;100386.94;4776995;29;20405;-85
2020/12/14 08:46:44;;;;;;;22.00;13.30;;;;;;;8.05;99.94;100403.91;4801114;29;20058;-85
2020/12/14 08:49:14;;;;;;;19.40;14.07;;;;;;;8.07;99.97;100391.22;4771404;29;20051;-86
2020/12/14 08:51:40;;;;;;;21.90;13.43;;;;;;;8.07;100.00;100391.22;4763439;29;20054;-85
2020/12/14 08:54:20;;;;;;;18.13;13.48;;;;;;;8.14;100.00;100401.41;4777609;29;20520;-84
2020/12/14 08:56:59;;;;;;;20.48;14.02;;;;;;;8.19;100.00;100399.19;4786939;29;20051;-87
2020/12/14 08:59:35;;;;;;;;;;;;;;;8.28;100.00;100398.38;4779978;29;20101;-85
2020/12/14 09:02:08;;;;;;;21.45;13.80;;;;;;;8.30;99.97;100401.75;4791125;29;20379;-85
2020/12/14 09:04:39;;;;;;;17.70;13.32;;;;;;;8.36;100.00;100409.31;4764230;29;20046;-87
2020/12/14 09:07:20;;;;;;;16.95;12.50;;;;;;;8.37;99.72;100416.34;4762300;29;20075;-85
2020/12/14 09:09:53;;;;;;;19.65;13.05;;;;;;;8.42;99.96;100411.44;4761936;29;20047;-85
2020/12/14 09:12:26;;;;;;;18.63;12.32;;;;;;;8.49;99.81;100416.31;4778691;29;20138;-85
2020/12/14 09:15:03;;;;;;;15.38;11.05;;;;;;;8.49;99.74;100419.81;4755238;29;20043;-86
2020/12/14 09:17:32;;;;;;;16.92;11.88;;;;;;;8.54;99.77;100428.34;4770405;29;20044;-85
2020/12/14 09:20:18;;;;;;;17.60;12.65;;;;;;;8.57;99.36;100433.44;4780261;29;20039;-86
2020/12/14 09:26:21;;;;;;;14.93;11.27;;;;;;;8.76;99.24;100439.88;4795444;29;20580;-85
2020/12/14 09:28:55;;;;;;;13.45;11.18;;;;;;;8.74;98.97;100437.31;4777651;29;20043;-85
2020/12/14 09:31:20;;;;;;;14.88;11.75;;;;;;;8.80;99.09;100445.81;4776677;29;21093;-84
2020/12/14 09:33:48;;;;;;;13.05;10.10;;;;;;;8.84;99.32;100447.25;4777136;29;20144;-86
2020/12/14 09:36:16;;;;;;;14.05;10.13;;;;;;;8.93;98.85;100447.28;4780989;29;20039;-85
2020/12/14 09:38:45;;;;;;;13.88;11.07;;;;;;;8.91;98.71;100443.06;4783255;29;20053;-84
2020/12/14 09:41:33;;;;;;;10.95;8.93;;;;;;;8.96;98.48;100454.22;4734745;29;20039;-86
2020/12/14 09:44:01;;;;;;;11.50;9.05;;;;;;;8.96;98.50;100454.22;4747795;30;20043;-85
2020/12/14 09:47:09;;;;;;;13.68;9.38;;;;;;;9.00;98.20;100446.75;4790742;29;20047;-87
2020/12/14 09:49:40;;;;;;;11.43;9.02;;;;;;;9.10;98.39;100453.84;4759734;29;20083;-85
2020/12/14 09:52:13;;;;;;;10.60;9.18;;;;;;;9.07;98.34;100451.44;4770409;29;20075;-87
2020/12/14 09:54:47;;;;;;;15.88;10.27;;;;;;;9.10;98.18;100458.38;4778268;29;20040;-86
2020/12/14 09:57:16;;;;;;;11.23;9.45;;;;;;;9.09;97.88;100457.50;4785210;29;20122;-86
2020/12/14 09:59:54;;;;;;;10.73;8.52;;;;;;;9.12;98.08;100459.91;4789163;29;20112;-85
2020/12/14 10:02:26;;;;;;;12.43;9.43;;;;;;;9.13;97.91;100458.09;4779138;29;20053;-87
2020/12/14 10:05:06;;;;;;;9.65;7.95;;;;;;;9.19;97.99;100457.53;4778225;29;20039;-85
2020/12/14 10:07:34;;;;;;;11.38;8.88;;;;;;;9.24;97.61;100465.19;4789693;29;20127;-85
2020/12/14 10:10:03;;;;;;;10.45;8.82;;;;;;;9.30;97.54;100464.63;4784749;29;20471;-85
2020/12/14 10:12:31;;;;;;;10.80;8.20;;;;;;;9.31;97.45;100463.66;4762420;29;20563;-84
2020/12/14 10:17:58;;;;;;;10.65;8.82;;;;;;;9.41;97.16;100451.09;4771598;29;20052;-84
2020/12/14 10:20:23;;;;;;;11.57;8.15;;;;;;;9.41;97.04;100451.09;4787558;29;20087;-86
2020/12/14 10:22:51;;;;;;;11.38;8.68;;;;;;;9.42;97.14;100457.31;4762755;29;20498;-86
2020/12/14 10:25:21;;;;;;;10.00;8.45;;;;;;;9.43;96.73;100453.63;4780050;29;20497;-85
2020/12/14 10:27:51;;;;;;;9.93;7.95;;;;;;;9.45;96.92;100455.22;4795790;29;20093;-86
2020/12/14 10:30:24;;;;;;;9.15;7.93;;;;;;;9.43;96.90;100459.84;4780344;29;20038;-87
2020/12/14 10:32:53;;;;;;;12.23;8.02;;;;;;;9.41;97.01;100452.94;4771124;29;20055;-86
2020/12/14 10:35:21;;;;;;;9.77;8.68;;;;;;;9.43;97.02;100457.16;4767052;29;20394;-85
2020/12/14 10:37:49;;;;;;;10.70;7.55;;;;;;;9.38;97.37;100451.38;4769503;29;20051;-85
2020/12/14 10:40:15;;;;;;;11.82;8.50;;;;;;;9.39;97.20;100461.13;4795500;29;20047;-85
2020/12/14 10:42:42;;;;;;;11.80;8.80;;;;;;;9.41;97.25;100459.16;4787271;29;20044;-85
2020/12/14 10:45:08;;;;;;;9.30;7.78;;;;;;;9.44;97.14;100461.56;4777973;29;20114;-84
2020/12/14 10:47:39;;;;;;;9.07;7.85;;;;;;;9.42;97.00;100458.16;4768920;29;20588;-85
2020/12/14 10:50:05;;;;;;;7.68;6.63;;;;;;;9.47;96.66;100457.75;4782117;29;20173;-85
2020/12/14 10:52:31;;;;;;;8.00;7.20;;;;;;;9.49;96.60;100453.06;4774350;29;20102;-83
2020/12/14 10:54:56;;;;;;;8.02;6.97;;;;;;;9.47;96.66;100457.75;4773637;29;20070;-84
2020/12/14 10:57:25;;;;;;;10.93;7.75;;;;;;;9.49;96.63;100450.38;4764967;29;20074;-84
2020/12/14 11:00:09;;;;;;;8.25;7.03;;;;;;;9.55;96.64;100449.00;4759922;29;20300;-85
2020/12/14 11:02:41;;;;;;;10.48;7.55;;;;;;;9.55;96.40;100441.75;4785090;29;20069;-86
2020/12/14 11:05:09;;;;;;;7.47;6.70;;;;;;;9.60;96.30;100449.44;4798347;29;20078;-86
2020/12/14 11:07:43;;;;;;;7.40;6.25;;;;;;;9.65;96.01;100452.53;4756556;29;20089;-85
2020/12/14 11:10:11;;;;;;;7.13;6.43;;;;;;;9.68;95.60;100443.34;4770302;29;20393;-84
2020/12/14 11:12:42;;;;;;;8.02;6.68;;;;;;;9.68;95.69;100460.31;4782598;29;20059;-84
2020/12/14 11:15:13;;;;;;;8.38;6.80;;;;;;;9.72;95.49;100452.84;4772337;29;20143;-85
2020/12/14 11:17:46;;;;;;;7.47;6.68;;;;;;;9.84;94.65;100456.22;4771961;29;20048;-84
2020/12/14 11:20:12;;;;;;;6.32;5.47;;;;;;;9.92;94.75;100459.03;4786391;29;20050;-85
2020/12/14 11:23:04;;;;;;;9.27;6.28;;;;;;;9.90;94.27;100456.50;4795981;29;20055;-85
2020/12/14 11:25:30;;;;;;;7.93;5.57;;;;;;;9.92;94.07;100453.66;4735813;29;20055;-85
2020/12/14 11:28:10;;;;;;;11.73;6.10;;;;;;;9.89;94.37;100459.31;4781835;29;20968;-86
2020/12/14 11:30:38;;;;;;;5.85;5.25;;;;;;;9.94;94.33;100465.16;4787839;29;20076;-82
2020/12/14 11:33:09;;;;;;;6.10;4.80;;;;;;;9.97;93.63;100463.00;4764833;29;20043;-84
2020/12/14 11:35:34;;;;;;;7.35;5.68;;;;;;;9.97;94.00;100456.78;4777663;29;20050;-87
2020/12/14 11:38:10;;;;;;;6.78;5.10;;;;;;;9.95;94.01;100448.88;4780138;29;20610;-86
2020/12/14 11:40:39;;;;;;;7.97;5.10;;;;;;;10.02;93.46;100457.19;4786463;29;20107;-84
2020/12/14 11:43:06;;;;;;;6.97;5.00;;;;;;;10.07;93.25;100460.31;4778800;29;20618;-87
2020/12/14 11:45:39;;;;;;;6.80;4.55;;;;;;;10.10;92.89;100451.97;4761530;29;20742;-86
2020/12/14 11:48:08;;;;;;;7.65;4.57;;;;;;;10.13;92.65;100446.31;4773992;29;20066;-85
2020/12/14 11:50:41;;;;;;;9.05;4.80;;;;;;;10.10;92.47;100449.28;4794650;29;20047;-86
2020/12/14 11:53:09;;;;;;;7.93;4.63;;;;;;;10.16;92.35;100462.16;4792336;29;20039;-84
2020/12/14 11:55:45;;;;;;;9.18;4.43;;;;;;;10.26;91.85;100466.66;4764845;29;20063;-83
2020/12/14 11:58:13;;;;;;;6.03;4.95;;;;;;;10.27;91.90;100453.06;4766939;29;20469;-84
2020/12/14 12:00:41;;;;;;;8.30;5.10;;;;;;;10.32;91.80;100460.69;4765299;29;20050;-87